Decoded Metar for PAAQ (PALMER in AK, USA) (IATA:PAQ) | Meteo·Mobile Aviation Weather
aviador You're here:

PAAQ Decoded Metar

PALMER in AK, USA
Report Time2019-02-19 23:53:00
UTC Time2019-02-20 00:55:29
Flight Rules vfr VFR
Wind230° at 04 kt
W.Decomp.*RWY 16: 2.6 kt HW 3.1 kt RCW
RWY 27: 2.0 kt HW 3.5 kt LCW
W.Rank230° ranks 19
Current wind is below 230° avg. (5.2)
Visibility9999 m
Phenomena:N/A
Clouds:N/A
Expected CloudBase > 2,000 ft AGL from Temp-Dew spread
CeilingNone
Temp-3°C (ISA -18)
Dew Point-8°C (69% RH)
AAT-7.3°C
QNH1021 hPa
Density Alt-2,142 ft
Elevation240 ft
Report Wrong Elevation
Raw Report
PAAQ 192353Z 23004KT 10SM CLR M03/M08 A3014 RMK AO2 SLP212
T10281083 11028 21083 51016=

Extra information for PAAQ:More info

Metar Taf Metar & Taf Last 4 Metars F.Rules Stats Wind Profile Meteogram Temp Stats Airport Information Weather charts Add Link Nearby VenuesMetar ALERT Operation Metar Decoded Social comments

AIRNAV info for PAAQ